Time;durP1;ratioP1;P1;durP2;ratioP2;P2;SDS_P1;SDS_P2;PMS_P1;PMS_P2;Temp;Humidity;BMP_temperature;BMP_pressure;BME280_temperature;BME280_humidity;BME280_pressure;Samples;Min_cycle;Max_cycle;Signal;HPM_P1;HPM_P2
2023/05/02 00:00:57;;;;;;;8.60;4.97;;;;;;;13.31;66.80;100162.78;3160235;28;20063;-73
2023/05/02 00:02:28;;;;;;;7.63;4.78;;;;;;;13.32;66.58;100172.31;3165935;28;20044;-73
2023/05/02 00:04:00;;;;;;;6.72;4.72;;;;;;;13.30;66.60;100174.13;3169901;28;20108;-72
2023/05/02 00:05:34;;;;;;;6.13;5.07;;;;;;;13.14;66.68;100147.88;3170048;28;20048;-72
2023/05/02 00:07:06;;;;;;;6.88;4.97;;;;;;;13.16;66.89;100159.13;3169955;28;20097;-72
2023/05/02 00:08:38;;;;;;;7.80;4.85;;;;;;;13.27;66.51;100163.84;3169546;28;20086;-72
2023/05/02 00:10:10;;;;;;;6.95;5.22;;;;;;;13.29;66.47;100171.63;3165583;28;20044;-72
2023/05/02 00:11:41;;;;;;;8.05;4.85;;;;;;;13.29;66.38;100175.06;3169594;28;20047;-72
2023/05/02 00:13:13;;;;;;;6.70;4.43;;;;;;;13.31;66.20;100175.84;3168382;28;20044;-72
2023/05/02 00:14:45;;;;;;;6.35;4.55;;;;;;;13.30;66.43;100176.75;3165490;28;20302;-72
2023/05/02 00:16:17;;;;;;;6.45;4.43;;;;;;;13.32;66.05;100181.91;3169366;28;20063;-71
2023/05/02 00:17:49;;;;;;;9.90;4.75;;;;;;;13.29;66.25;100182.06;3170041;28;20055;-72
2023/05/02 00:19:21;;;;;;;8.10;4.70;;;;;;;13.25;66.31;100175.25;3170001;28;20048;-72
2023/05/02 00:20:54;;;;;;;8.48;4.72;;;;;;;13.16;66.59;100173.94;3167766;28;20047;-72
2023/05/02 00:22:27;;;;;;;10.43;5.50;;;;;;;13.14;66.45;100181.03;3169965;28;20657;-71
2023/05/02 00:23:59;;;;;;;9.43;4.88;;;;;;;12.73;66.75;100115.97;3169408;28;20055;-72
2023/05/02 00:25:31;;;;;;;7.90;4.85;;;;;;;13.09;66.76;100186.50;3169863;28;20047;-72
2023/05/02 00:27:02;;;;;;;8.15;4.80;;;;;;;13.02;66.53;100177.25;3169315;28;20120;-72
2023/05/02 00:28:34;;;;;;;6.65;5.13;;;;;;;13.06;66.71;100183.19;3161392;28;20101;-72
2023/05/02 00:30:08;;;;;;;6.38;4.63;;;;;;;13.03;66.74;100183.34;3166462;28;20039;-72
2023/05/02 00:31:41;;;;;;;9.40;4.90;;;;;;;13.00;66.90;100188.72;3169370;28;20385;-72
2023/05/02 00:33:13;;;;;;;7.40;4.45;;;;;;;12.97;67.14;100182.72;3169512;28;20101;-71
2023/05/02 00:34:45;;;;;;;6.25;5.20;;;;;;;12.95;67.24;100187.19;3169482;28;20051;-71
2023/05/02 00:36:19;;;;;;;6.05;4.85;;;;;;;12.79;67.12;100162.69;3161806;28;20051;-72
2023/05/02 00:37:51;;;;;;;6.75;4.65;;;;;;;12.94;67.18;100193.31;3166889;28;20081;-72
2023/05/02 00:39:23;;;;;;;9.77;5.05;;;;;;;12.93;67.18;100193.41;3162389;28;20063;-72
2023/05/02 00:40:55;;;;;;;6.97;5.00;;;;;;;12.89;67.22;100190.06;3166993;28;20059;-72
2023/05/02 00:42:28;;;;;;;5.97;4.85;;;;;;;12.92;67.09;100202.16;3169356;28;20055;-73
2023/05/02 00:43:59;;;;;;;9.23;4.88;;;;;;;12.86;67.09;100195.44;3158535;28;20648;-73
2023/05/02 00:45:31;;;;;;;7.05;4.82;;;;;;;12.88;66.86;100201.47;3164712;28;20051;-73
2023/05/02 00:47:04;;;;;;;7.45;5.07;;;;;;;12.85;67.09;100192.91;3169419;28;20113;-73
2023/05/02 00:48:36;;;;;;;7.57;5.20;;;;;;;12.85;66.80;100206.84;3169763;28;20543;-73
2023/05/02 00:50:08;;;;;;;7.78;4.90;;;;;;;12.84;67.23;100202.53;3165088;28;20573;-73
2023/05/02 00:51:42;;;;;;;9.13;5.03;;;;;;;12.82;67.24;100203.53;3161654;28;20485;-73
2023/05/02 00:53:13;;;;;;;;;;;;;;;12.71;67.25;100204.03;3167857;28;20054;-73
2023/05/02 00:54:45;;;;;;;7.65;4.97;;;;;;;12.68;67.24;100205.00;3160833;28;19931;-73
2023/05/02 00:56:17;;;;;;;13.40;5.05;;;;;;;12.65;67.86;100206.94;3169478;28;20067;-73
2023/05/02 00:57:49;;;;;;;8.25;5.93;;;;;;;12.59;67.86;100202.84;3167676;28;20047;-73
2023/05/02 00:59:21;;;;;;;8.90;5.25;;;;;;;12.60;68.00;100201.94;3158105;28;20541;-73
2023/05/02 01:01:16;;;;;;;10.57;5.30;;;;;;;12.33;67.44;100164.88;3165397;28;20529;-73
2023/05/02 01:02:53;;;;;;;8.65;4.85;;;;;;;12.15;67.96;100139.63;3169376;28;20047;-73
2023/05/02 01:04:35;;;;;;;6.07;4.65;;;;;;;12.52;67.97;100207.50;3169513;28;20043;-73
2023/05/02 01:06:17;;;;;;;7.50;5.35;;;;;;;12.50;68.04;100203.28;3169414;28;20044;-73
2023/05/02 01:08:03;;;;;;;9.90;5.30;;;;;;;12.48;68.05;100208.59;3169474;28;20051;-73
2023/05/02 01:09:45;;;;;;;9.82;5.05;;;;;;;12.49;67.78;100212.03;3169553;28;20105;-73
2023/05/02 01:11:27;;;;;;;9.45;4.78;;;;;;;12.39;67.92;100198.53;3169054;28;20048;-73
2023/05/02 01:13:06;;;;;;;8.52;4.90;;;;;;;12.40;67.84;100195.03;3166373;28;20051;-73
2023/05/02 01:14:42;;;;;;;15.85;5.45;;;;;;;12.51;67.78;100213.66;3163898;28;20104;-73
2023/05/02 01:16:17;;;;;;;14.63;5.75;;;;;;;12.50;67.39;100211.09;3168387;28;20105;-73
2023/05/02 01:17:52;;;;;;;9.38;4.97;;;;;;;12.57;67.44;100211.66;3158049;28;20138;-72
2023/05/02 01:19:29;;;;;;;7.13;4.78;;;;;;;12.58;67.57;100216.00;3169385;28;20585;-73
2023/05/02 01:21:04;;;;;;;7.65;5.65;;;;;;;12.47;67.24;100196.41;3169314;28;20432;-72
2023/05/02 01:22:39;;;;;;;9.85;5.43;;;;;;;12.59;67.19;100225.50;3163141;28;20048;-73
2023/05/02 01:24:20;;;;;;;8.40;5.72;;;;;;;12.60;67.42;100216.75;3162694;28;20048;-73
2023/05/02 01:26:15;;;;;;;9.05;5.53;;;;;;;12.42;67.23;100190.59;3169709;28;20055;-73
2023/05/02 01:27:57;;;;;;;7.78;5.90;;;;;;;12.58;67.19;100216.81;3167856;28;20058;-73
2023/05/02 01:29:31;;;;;;;11.23;5.78;;;;;;;12.56;67.40;100223.03;3163815;28;20497;-71
2023/05/02 01:31:06;;;;;;;8.25;5.20;;;;;;;12.52;67.49;100210.13;3169439;28;20104;-72
2023/05/02 01:32:41;;;;;;;9.23;5.40;;;;;;;12.48;67.35;100213.81;3170693;28;20055;-72
2023/05/02 01:34:13;;;;;;;10.80;5.45;;;;;;;12.51;67.59;100215.41;3171951;28;20039;-72
2023/05/02 01:35:49;;;;;;;13.77;6.07;;;;;;;12.47;67.39;100212.09;3163514;28;20044;-71
2023/05/02 01:37:22;;;;;;;10.15;5.68;;;;;;;12.39;67.63;100222.03;3165049;28;20112;-71
2023/05/02 01:38:56;;;;;;;11.98;5.75;;;;;;;12.31;67.66;100212.91;3168286;28;20383;-71
2023/05/02 01:40:29;;;;;;;12.63;6.10;;;;;;;12.26;67.81;100213.09;3164974;28;20048;-71
2023/05/02 01:42:03;;;;;;;10.07;6.43;;;;;;;12.22;67.66;100211.53;3171515;28;20417;-71
2023/05/02 01:43:36;;;;;;;10.57;6.60;;;;;;;12.15;68.05;100208.34;3165595;28;20075;-71
2023/05/02 01:45:12;;;;;;;9.02;5.78;;;;;;;12.13;68.13;100215.41;3171258;28;20044;-71
2023/05/02 01:46:46;;;;;;;11.70;7.13;;;;;;;12.13;68.21;100215.41;3171394;28;20043;-72
2023/05/02 01:48:19;;;;;;;;;;;;;;;12.02;68.01;100215.88;3171604;28;20108;-72
2023/05/02 01:49:51;;;;;;;9.88;6.32;;;;;;;12.00;68.29;100219.47;3170965;28;20377;-72
2023/05/02 01:51:26;;;;;;;11.48;6.93;;;;;;;12.00;68.47;100219.47;3170641;28;20443;-72
2023/05/02 01:53:00;;;;;;;12.00;5.85;;;;;;;11.76;68.58;100184.84;3168383;28;20052;-72
2023/05/02 01:54:35;;;;;;;12.05;6.80;;;;;;;11.88;68.39;100202.59;3142755;28;20048;-72
2023/05/02 01:56:07;;;;;;;9.02;6.13;;;;;;;11.99;68.40;100221.25;3154415;28;20056;-71
2023/05/02 01:57:42;;;;;;;8.82;5.90;;;;;;;11.93;68.62;100213.69;3160743;28;20056;-73
2023/05/02 01:59:17;;;;;;;12.45;6.70;;;;;;;11.90;68.45;100219.03;3153762;28;20087;-73
2023/05/02 02:00:50;;;;;;;10.15;6.43;;;;;;;11.90;68.51;100219.03;3145585;28;20445;-74
2023/05/02 02:02:24;;;;;;;8.02;5.93;;;;;;;11.68;68.45;100184.31;3165978;28;20146;-74
2023/05/02 02:03:57;;;;;;;10.50;5.80;;;;;;;11.86;68.67;100225.31;3166033;28;20084;-74
2023/05/02 02:05:30;;;;;;;7.40;5.35;;;;;;;11.83;68.17;100220.16;3166081;28;20796;-74
2023/05/02 02:07:06;;;;;;;12.43;5.55;;;;;;;11.81;68.20;100222.03;3165806;28;20154;-74
2023/05/02 02:08:37;;;;;;;10.15;4.63;;;;;;;11.74;67.52;100223.19;3165915;28;20060;-75
2023/05/02 02:10:10;;;;;;;9.05;5.22;;;;;;;11.73;67.32;100229.31;3165804;28;20090;-74
2023/05/02 02:11:46;;;;;;;12.15;6.10;;;;;;;11.67;67.56;100230.44;3165900;28;20047;-74
2023/05/02 02:13:22;;;;;;;13.25;5.00;;;;;;;11.54;67.55;100214.47;3153970;28;20087;-74
2023/05/02 02:14:59;;;;;;;12.30;5.95;;;;;;;11.22;67.81;100160.22;3161755;28;20467;-74
2023/05/02 02:16:37;;;;;;;9.95;5.25;;;;;;;11.55;67.77;100220.53;3165466;28;20051;-71
2023/05/02 02:18:12;;;;;;;12.88;5.75;;;;;;;11.34;67.75;100194.44;3159344;28;20101;-72
2023/05/02 02:19:45;;;;;;;12.68;5.35;;;;;;;11.50;68.02;100222.47;3161641;28;20056;-72
2023/05/02 02:21:20;;;;;;;10.00;5.13;;;;;;;11.49;67.81;100226.84;3165198;28;20319;-73
2023/05/02 02:22:54;;;;;;;8.70;4.93;;;;;;;11.49;67.55;100221.63;3165812;28;20051;-73
2023/05/02 02:24:27;;;;;;;9.65;5.22;;;;;;;11.48;67.76;100224.31;3165480;28;20516;-72
2023/05/02 02:26:00;;;;;;;8.35;5.55;;;;;;;11.42;67.87;100215.00;3165671;28;20047;-73
2023/05/02 02:27:32;;;;;;;8.32;6.15;;;;;;;11.40;67.86;100227.25;3164994;28;20108;-72
2023/05/02 02:29:04;;;;;;;7.22;5.38;;;;;;;11.30;67.64;100207.69;3162614;28;20095;-73
2023/05/02 02:30:36;;;;;;;8.77;5.30;;;;;;;11.25;67.69;100207.03;3165820;28;20055;-72
2023/05/02 02:32:09;;;;;;;11.55;6.28;;;;;;;11.31;68.15;100220.63;3165527;28;20043;-72
2023/05/02 02:33:40;;;;;;;9.55;5.40;;;;;;;11.26;68.37;100224.34;3165667;28;20070;-72
2023/05/02 02:35:12;;;;;;;8.68;5.55;;;;;;;11.28;68.15;100232.97;3162216;28;20389;-73
2023/05/02 02:36:47;;;;;;;10.38;6.70;;;;;;;11.28;68.18;100233.81;3152146;28;20172;-72
2023/05/02 02:38:27;;;;;;;8.60;5.88;;;;;;;11.27;68.10;100223.44;3165594;28;20056;-73
2023/05/02 02:40:08;;;;;;;9.70;5.38;;;;;;;11.23;68.39;100227.09;3155859;28;20059;-72
2023/05/02 02:41:48;;;;;;;7.28;5.75;;;;;;;11.21;68.22;100231.50;3157221;28;20059;-72
2023/05/02 02:43:27;;;;;;;10.90;6.20;;;;;;;11.20;68.63;100229.81;3161981;28;20613;-73
2023/05/02 02:45:08;;;;;;;10.68;6.20;;;;;;;11.20;68.63;100227.22;3165468;28;20493;-72
2023/05/02 02:46:49;;;;;;;10.32;6.55;;;;;;;11.13;68.46;100221.41;3165746;28;20047;-73
2023/05/02 02:48:35;;;;;;;13.50;7.60;;;;;;;11.17;68.35;100230.78;3165346;28;20082;-72
2023/05/02 02:50:17;;;;;;;11.80;7.63;;;;;;;11.16;68.75;100232.53;3160019;28;20101;-73
2023/05/02 02:51:58;;;;;;;16.42;7.50;;;;;;;11.16;68.81;100234.31;3158931;28;20069;-74
2023/05/02 02:53:38;;;;;;;14.80;7.40;;;;;;;11.13;68.80;100235.28;3161328;28;20230;-74
2023/05/02 02:55:16;;;;;;;15.10;7.50;;;;;;;11.11;68.73;100236.25;3160290;28;20443;-74
2023/05/02 02:56:55;;;;;;;13.82;7.97;;;;;;;11.10;68.95;100230.19;3161223;28;20047;-74
2023/05/02 02:58:38;;;;;;;15.65;8.00;;;;;;;11.07;69.17;100230.31;3157950;28;20536;-72
2023/05/02 03:00:15;;;;;;;15.57;7.65;;;;;;;11.04;69.42;100234.81;3161071;28;20440;-72
2023/05/02 03:01:57;;;;;;;13.98;7.43;;;;;;;11.04;69.24;100240.88;3157335;28;20134;-72
2023/05/02 03:03:32;;;;;;;14.80;6.88;;;;;;;11.01;69.51;100238.38;3165021;28;20648;-72
2023/05/02 03:05:07;;;;;;;11.18;6.82;;;;;;;11.02;69.79;100250.50;3165383;28;20051;-72
2023/05/02 03:06:39;;;;;;;12.20;7.30;;;;;;;11.00;69.72;100251.47;3164939;28;20067;-72
2023/05/02 03:08:12;;;;;;;12.38;7.13;;;;;;;10.96;69.87;100248.13;3165468;28;20131;-72
2023/05/02 03:09:45;;;;;;;15.48;7.95;;;;;;;10.92;69.88;100249.19;3159306;28;20212;-72
2023/05/02 03:11:16;;;;;;;11.52;7.95;;;;;;;10.88;69.88;100250.19;3158472;28;20051;-72
2023/05/02 03:12:48;;;;;;;15.20;8.15;;;;;;;10.83;70.18;100241.72;3163423;28;20047;-72
2023/05/02 03:14:20;;;;;;;11.40;7.63;;;;;;;10.83;70.15;100252.16;3157514;28;20044;-72
2023/05/02 03:16:23;;;;;;;11.40;7.63;;;;;;;10.79;70.40;100259.19;3164859;28;20058;-72
2023/05/02 03:17:55;;;;;;;10.60;7.18;;;;;;;10.76;70.82;100255.88;3165049;28;20238;-69
2023/05/02 03:19:28;;;;;;;10.77;7.65;;;;;;;10.75;70.66;100257.63;3164450;28;20532;-69
2023/05/02 03:21:00;;;;;;;;;;;;;;;10.64;70.36;100258.03;3159191;28;20131;-70
2023/05/02 03:22:32;;;;;;;11.85;7.60;;;;;;;10.62;70.73;100262.47;3157853;28;20449;-71
2023/05/02 03:24:04;;;;;;;15.63;8.13;;;;;;;10.64;71.07;100263.25;3163785;28;20094;-71
2023/05/02 03:25:36;;;;;;;13.70;7.60;;;;;;;10.65;70.94;100259.75;3156147;28;20047;-71
2023/05/02 03:27:08;;;;;;;17.08;7.95;;;;;;;10.67;71.19;100263.13;3165042;28;20111;-71
2023/05/02 03:28:39;;;;;;;12.88;7.93;;;;;;;10.68;71.10;100269.22;3157428;28;20523;-71
2023/05/02 03:30:11;;;;;;;12.98;8.65;;;;;;;10.69;71.13;100271.75;3154241;28;20052;-72
2023/05/02 03:31:43;;;;;;;13.43;8.18;;;;;;;10.70;71.34;100269.97;3164549;28;20116;-70
2023/05/02 03:33:14;;;;;;;17.55;8.18;;;;;;;10.70;71.23;100273.44;3165347;28;20056;-71
2023/05/02 03:34:47;;;;;;;12.07;8.63;;;;;;;10.72;71.32;100275.16;3165030;28;20082;-71
2023/05/02 03:36:19;;;;;;;12.07;7.97;;;;;;;10.69;71.54;100274.34;3150661;28;20205;-71
2023/05/02 03:37:51;;;;;;;12.13;7.60;;;;;;;10.68;71.72;100280.47;3163373;28;20059;-71
2023/05/02 03:39:23;;;;;;;15.63;8.38;;;;;;;10.47;71.67;100242.22;3157510;28;20050;-72
2023/05/02 03:40:57;;;;;;;14.45;8.05;;;;;;;10.69;71.46;100279.56;3162523;28;20124;-73
2023/05/02 03:42:29;;;;;;;15.90;8.80;;;;;;;10.68;71.66;100277.03;3164856;28;20497;-73
2023/05/02 03:44:01;;;;;;;15.25;8.60;;;;;;;10.67;72.10;100278.75;3161494;28;20860;-72
2023/05/02 03:45:32;;;;;;;16.65;8.48;;;;;;;10.67;72.15;100278.75;3164636;28;20047;-72
2023/05/02 03:47:04;;;;;;;19.77;8.55;;;;;;;10.67;72.19;100283.13;3164631;28;20050;-72
2023/05/02 03:48:36;;;;;;;12.38;8.63;;;;;;;10.65;71.88;100278.00;3164439;28;20613;-72
2023/05/02 03:50:10;;;;;;;14.80;10.10;;;;;;;10.70;72.12;100286.44;3164817;28;20052;-71
2023/05/02 03:51:42;;;;;;;14.93;8.63;;;;;;;10.72;72.10;100288.19;3164411;28;20556;-72
2023/05/02 03:53:14;;;;;;;17.73;9.38;;;;;;;10.68;72.18;100280.47;3162923;28;20788;-72
2023/05/02 03:54:46;;;;;;;17.23;9.05;;;;;;;10.74;72.52;100283.72;3154385;28;20454;-72
2023/05/02 03:56:20;;;;;;;17.15;8.77;;;;;;;10.78;72.29;100298.34;3164426;28;20054;-72
2023/05/02 03:57:59;;;;;;;14.18;9.20;;;;;;;10.80;72.40;100291.34;3162562;28;20082;-71
2023/05/02 03:59:34;;;;;;;15.18;8.57;;;;;;;10.83;71.97;100297.28;3147157;28;20059;-70
2023/05/02 04:01:13;;;;;;;17.00;8.63;;;;;;;10.87;72.16;100298.00;3158626;28;20106;-71
2023/05/02 04:02:45;;;;;;;15.45;10.02;;;;;;;10.89;72.21;100298.81;3164734;28;20968;-72
2023/05/02 04:04:17;;;;;;;17.20;10.10;;;;;;;10.81;71.95;100282.59;3169597;28;20040;-69
2023/05/02 04:05:51;;;;;;;14.90;8.95;;;;;;;10.96;71.81;100300.25;3167560;28;20047;-69
2023/05/02 04:07:24;;;;;;;16.63;9.73;;;;;;;10.98;71.94;100301.06;3170016;28;20101;-69
2023/05/02 04:08:57;;;;;;;14.95;8.65;;;;;;;10.96;71.75;100300.25;3164203;28;20155;-69
2023/05/02 04:10:29;;;;;;;20.88;9.50;;;;;;;11.01;72.02;100303.53;3165864;28;20051;-69
2023/05/02 04:12:01;;;;;;;16.75;8.55;;;;;;;10.99;71.92;100300.13;3164620;28;20040;-70
2023/05/02 04:13:33;;;;;;;17.73;8.68;;;;;;;11.05;71.55;100301.66;3163655;28;20070;-71
2023/05/02 04:15:05;;;;;;;18.58;8.93;;;;;;;11.07;71.70;100311.13;3169063;28;20061;-68
2023/05/02 04:16:38;;;;;;;15.35;8.98;;;;;;;11.05;71.68;100305.09;3156665;28;20060;-73
2023/05/02 04:18:10;;;;;;;17.27;9.07;;;;;;;11.05;71.99;100307.72;3169439;28;20083;-69
2023/05/02 04:19:41;;;;;;;20.42;8.48;;;;;;;11.13;71.89;100317.84;3169272;28;20817;-71
2023/05/02 04:21:15;;;;;;;19.60;8.77;;;;;;;11.14;71.95;100306.50;3161154;28;20055;-69
2023/05/02 04:22:48;;;;;;;14.82;8.68;;;;;;;11.24;72.23;100320.00;3167318;28;20059;-69
2023/05/02 04:24:20;;;;;;;17.70;9.00;;;;;;;11.11;71.82;100286.63;3167261;28;20461;-75
2023/05/02 04:25:53;;;;;;;16.35;8.50;;;;;;;11.30;72.04;100311.97;3166292;28;20048;-76
2023/05/02 04:27:24;;;;;;;37.53;18.45;;;;;;;11.32;71.59;100312.75;3169937;28;20131;-76
2023/05/02 04:28:56;;;;;;;32.17;14.57;;;;;;;11.40;71.73;100318.50;3158451;28;20452;-76
2023/05/02 04:30:28;;;;;;;47.92;27.20;;;;;;;11.45;71.07;100320.94;3164946;28;20047;-71
2023/05/02 04:32:00;;;;;;;18.05;9.02;;;;;;;11.48;71.10;100321.66;3168317;28;20440;-70
2023/05/02 04:33:32;;;;;;;16.77;7.07;;;;;;;11.52;71.12;100319.78;3169350;28;20535;-69
2023/05/02 04:35:04;;;;;;;13.35;8.25;;;;;;;11.57;70.54;100330.88;3167492;28;20089;-72
2023/05/02 04:36:37;;;;;;;18.48;9.20;;;;;;;11.63;70.61;100322.78;3155937;28;20155;-72
2023/05/02 04:38:09;;;;;;;32.55;15.57;;;;;;;11.67;70.35;100328.72;3165238;28;20048;-73
2023/05/02 04:39:41;;;;;;;18.30;10.93;;;;;;;11.69;70.02;100325.16;3160449;28;20421;-75
2023/05/02 04:41:13;;;;;;;26.35;12.05;;;;;;;11.49;70.10;100279.00;3156936;28;20051;-68
2023/05/02 04:42:45;;;;;;;24.10;7.75;;;;;;;11.80;69.72;100325.56;3166763;28;20051;-70
2023/05/02 04:44:17;;;;;;;15.57;7.75;;;;;;;11.76;69.57;100312.69;3163915;28;20077;-67
2023/05/02 04:45:48;;;;;;;17.58;8.02;;;;;;;11.84;69.26;100313.22;3155540;28;20452;-67
2023/05/02 04:47:21;;;;;;;21.98;6.93;;;;;;;11.91;68.88;100314.69;3165737;28;20417;-66
2023/05/02 04:48:53;;;;;;;22.15;7.47;;;;;;;11.95;68.92;100316.25;3169337;28;20058;-65
2023/05/02 04:50:27;;;;;;;17.77;7.82;;;;;;;12.00;68.51;100310.84;3167161;28;20047;-67
2023/05/02 04:52:00;;;;;;;12.43;6.88;;;;;;;12.04;68.25;100318.47;3163935;28;20044;-69
2023/05/02 04:53:32;;;;;;;;;;;;;;;12.05;68.44;100317.56;3160250;28;20063;-68
2023/05/02 04:55:05;;;;;;;12.00;6.25;;;;;;;12.05;68.00;100312.34;3162668;28;19969;-67
2023/05/02 04:56:37;;;;;;;;;;;;;;;12.14;67.78;100318.91;3169471;28;20574;-67
2023/05/02 04:58:09;;;;;;;11.10;5.78;;;;;;;12.11;67.46;100297.31;3160883;28;20300;-66
2023/05/02 04:59:41;;;;;;;12.40;5.95;;;;;;;12.36;67.18;100323.19;3160122;28;20475;-65
2023/05/02 05:01:13;;;;;;;14.18;6.40;;;;;;;12.48;66.88;100323.53;3163660;28;20055;-66
2023/05/02 05:02:45;;;;;;;11.15;5.53;;;;;;;12.64;66.47;100328.06;3157925;28;20093;-67
2023/05/02 05:04:17;;;;;;;12.30;5.80;;;;;;;12.56;65.46;100293.56;3169519;28;20055;-69
2023/05/02 05:05:49;;;;;;;11.15;5.85;;;;;;;12.87;64.95;100324.41;3168706;28;20104;-69
2023/05/02 05:07:22;;;;;;;15.10;6.10;;;;;;;13.03;64.45;100332.34;3166484;28;20493;-68
2023/05/02 05:08:55;;;;;;;12.95;5.65;;;;;;;13.23;63.99;100324.44;3171701;28;20409;-68
2023/05/02 05:10:27;;;;;;;13.05;6.13;;;;;;;13.52;63.68;100324.81;3171783;28;20776;-68
2023/05/02 05:11:59;;;;;;;17.67;5.68;;;;;;;13.88;62.91;100330.84;3171752;28;20151;-68
2023/05/02 05:13:31;;;;;;;20.48;6.43;;;;;;;14.16;61.73;100320.72;3163703;28;20048;-67
2023/05/02 05:15:03;;;;;;;9.65;6.15;;;;;;;14.57;60.92;100323.81;3159472;28;20116;-68
2023/05/02 05:16:36;;;;;;;19.02;6.13;;;;;;;15.06;59.70;100320.34;3170219;28;20093;-66
2023/05/02 05:18:08;;;;;;;17.52;6.22;;;;;;;15.56;58.27;100329.72;3146800;28;20140;-66
2023/05/02 05:19:39;;;;;;;10.45;5.93;;;;;;;16.00;56.96;100321.06;3164375;28;20479;-67
2023/05/02 05:21:11;;;;;;;9.27;5.82;;;;;;;16.45;55.16;100330.59;3153348;28;20047;-67
2023/05/02 05:22:45;;;;;;;18.58;7.25;;;;;;;16.81;53.59;100326.66;3158407;28;20055;-68
2023/05/02 05:24:17;;;;;;;12.80;5.63;;;;;;;17.14;52.60;100323.69;3165956;28;20124;-68
2023/05/02 05:25:49;;;;;;;11.20;6.75;;;;;;;17.40;51.22;100316.72;3170557;28;20051;-66
2023/05/02 05:27:21;;;;;;;14.18;6.07;;;;;;;17.65;50.77;100299.31;3170208;28;20043;-67
2023/05/02 05:28:53;;;;;;;14.35;5.90;;;;;;;18.17;50.11;100330.09;3167310;28;20051;-65
2023/05/02 05:30:25;;;;;;;18.02;5.40;;;;;;;18.39;49.22;100335.56;3171374;28;20044;-65
2023/05/02 05:31:57;;;;;;;18.40;5.78;;;;;;;18.66;48.79;100334.56;3165278;28;20051;-66
2023/05/02 05:33:32;;;;;;;17.70;5.43;;;;;;;18.91;48.36;100336.38;3160330;28;20126;-68
2023/05/02 05:35:04;;;;;;;14.43;5.20;;;;;;;18.83;47.13;100341.34;3170859;28;20135;-67
2023/05/02 05:36:37;;;;;;;9.63;5.40;;;;;;;18.72;47.76;100333.31;3160242;28;20141;-66
2023/05/02 05:38:10;;;;;;;16.55;5.35;;;;;;;18.68;48.08;100335.31;3171732;28;20116;-67
2023/05/02 05:39:42;;;;;;;;;;;;;;;18.58;48.46;100336.94;3162154;28;20060;-64
2023/05/02 05:41:14;;;;;;;11.93;5.50;;;;;;;18.36;48.34;100334.94;3171425;28;19973;-65
2023/05/02 05:42:45;;;;;;;14.60;5.78;;;;;;;18.19;48.89;100344.00;3169892;28;20078;-65
2023/05/02 05:44:18;;;;;;;12.23;5.32;;;;;;;18.01;48.89;100340.81;3167441;28;20051;-65
2023/05/02 05:45:52;;;;;;;20.20;5.50;;;;;;;17.90;48.66;100345.97;3157859;28;20059;-66
2023/05/02 05:47:24;;;;;;;14.77;5.82;;;;;;;17.74;48.94;100340.84;3168729;28;20066;-69
2023/05/02 05:48:56;;;;;;;11.45;5.15;;;;;;;17.64;48.90;100342.41;3170933;28;20055;-64
2023/05/02 05:50:28;;;;;;;16.80;6.60;;;;;;;17.43;49.18;100331.50;3166466;28;20512;-66
2023/05/02 05:52:01;;;;;;;13.98;5.10;;;;;;;17.44;49.69;100355.06;3165946;28;20495;-66
2023/05/02 05:53:34;;;;;;;12.82;6.03;;;;;;;17.51;50.05;100352.91;3166737;28;20048;-66
2023/05/02 05:55:06;;;;;;;;;;;;;;;17.62;50.94;100345.13;3165522;28;20048;-67
2023/05/02 05:56:39;;;;;;;12.63;4.88;;;;;;;17.89;50.51;100349.53;3170936;28;20323;-66
2023/05/02 05:58:11;;;;;;;11.60;5.38;;;;;;;17.83;50.13;100311.28;3164761;28;20635;-65
2023/05/02 05:59:43;;;;;;;10.68;5.63;;;;;;;18.37;49.67;100352.47;3162952;28;20047;-67
2023/05/02 06:01:15;;;;;;;13.75;5.25;;;;;;;18.61;49.51;100339.34;3166814;28;20051;-68
2023/05/02 06:02:47;;;;;;;11.82;4.97;;;;;;;18.91;48.73;100340.81;3170999;28;20117;-68
2023/05/02 06:04:19;;;;;;;15.73;5.40;;;;;;;19.26;48.08;100354.13;3171083;28;20101;-68
2023/05/02 06:05:54;;;;;;;12.32;4.82;;;;;;;19.29;47.38;100343.31;3165998;28;20050;-67
2023/05/02 06:07:26;;;;;;;12.82;5.70;;;;;;;19.39;46.76;100351.41;3171440;28;20528;-69
2023/05/02 06:09:00;;;;;;;13.35;5.53;;;;;;;19.46;46.97;100352.63;3170563;28;20079;-69
2023/05/02 06:10:32;;;;;;;15.75;6.07;;;;;;;19.55;46.59;100354.59;3170802;28;20053;-67
2023/05/02 06:12:04;;;;;;;13.00;6.00;;;;;;;19.56;46.51;100351.03;3171463;28;20528;-65
2023/05/02 06:13:36;;;;;;;11.32;5.50;;;;;;;19.54;46.40;100331.78;3162334;28;20514;-68
2023/05/02 06:15:08;;;;;;;11.13;6.47;;;;;;;19.64;46.28;100351.31;3169505;28;20102;-67
2023/05/02 06:16:41;;;;;;;9.75;5.90;;;;;;;19.62;46.04;100349.72;3168873;28;20056;-67
2023/05/02 06:18:14;;;;;;;10.80;5.50;;;;;;;19.55;45.69;100352.81;3167539;28;20057;-66
2023/05/02 06:19:46;;;;;;;11.32;6.20;;;;;;;19.30;45.71;100352.94;3170433;28;20089;-66
2023/05/02 06:21:20;;;;;;;9.48;5.70;;;;;;;19.15;46.01;100352.25;3164326;28;20108;-67
2023/05/02 06:22:52;;;;;;;9.55;5.10;;;;;;;19.04;45.90;100354.81;3166222;28;20576;-66
2023/05/02 06:24:25;;;;;;;11.82;4.97;;;;;;;18.91;45.40;100356.66;3171189;28;20104;-66
2023/05/02 06:25:59;;;;;;;8.32;5.47;;;;;;;18.77;46.10;100354.97;3170649;28;20047;-67
2023/05/02 06:27:49;;;;;;;14.98;6.75;;;;;;;18.64;46.45;100350.53;3170309;28;20085;-66
2023/05/02 06:29:24;;;;;;;14.18;5.68;;;;;;;18.46;46.86;100346.53;3162054;28;20052;-66
2023/05/02 06:32:59;;;;;;;14.30;6.10;;;;;;;17.99;47.60;100348.00;3170022;28;20055;-68
2023/05/02 06:36:46;;;;;;;9.60;6.38;;;;;;;17.79;48.31;100345.84;3045625;29;20653;-64
2023/05/02 06:38:18;;;;;;;12.40;6.30;;;;;;;17.72;48.82;100345.38;3113251;28;20148;-65
2023/05/02 06:39:51;;;;;;;12.40;6.88;;;;;;;17.59;49.08;100331.31;3159982;28;20532;-67
2023/05/02 06:41:23;;;;;;;18.77;5.72;;;;;;;17.64;48.99;100337.13;3170652;28;20135;-67
2023/05/02 06:42:56;;;;;;;9.77;6.00;;;;;;;17.68;49.55;100333.34;3168307;28;20597;-67
2023/05/02 06:44:28;;;;;;;9.93;6.18;;;;;;;17.59;49.63;100329.53;3170429;28;20099;-68
2023/05/02 06:46:01;;;;;;;14.23;7.13;;;;;;;17.64;49.53;100335.34;3170499;28;20586;-69
2023/05/02 06:47:33;;;;;;;13.05;6.95;;;;;;;17.60;49.76;100335.63;3170505;28;20067;-67
2023/05/02 06:49:05;;;;;;;11.50;6.93;;;;;;;17.46;49.98;100315.50;3168647;28;20105;-67
2023/05/02 06:50:37;;;;;;;14.30;6.50;;;;;;;17.42;50.19;100312.22;3167567;28;20047;-67
2023/05/02 06:52:10;;;;;;;12.55;6.13;;;;;;;17.56;50.34;100331.53;3170161;28;20333;-67
2023/05/02 06:53:42;;;;;;;12.90;6.80;;;;;;;17.61;49.95;100334.72;3164167;28;20147;-67
2023/05/02 06:55:15;;;;;;;11.48;6.05;;;;;;;17.62;49.96;100329.31;3162584;28;20048;-66
2023/05/02 06:56:48;;;;;;;11.80;6.53;;;;;;;17.63;49.89;100338.06;3164878;28;20070;-67
2023/05/02 06:58:20;;;;;;;13.53;6.63;;;;;;;17.57;49.72;100331.44;3168975;28;20047;-67
2023/05/02 06:59:52;;;;;;;17.75;7.15;;;;;;;17.51;50.02;100316.88;3170234;28;20051;-67
2023/05/02 07:01:24;;;;;;;12.75;5.30;;;;;;;17.55;49.94;100322.78;3164450;28;20081;-67
2023/05/02 07:02:56;;;;;;;7.93;4.97;;;;;;;17.58;49.38;100333.13;3169839;28;20146;-66
2023/05/02 07:04:31;;;;;;;6.18;4.35;;;;;;;17.43;48.60;100310.44;3163742;28;20055;-67
2023/05/02 07:06:03;;;;;;;13.77;5.40;;;;;;;17.54;48.38;100336.03;3169755;28;20048;-66
2023/05/02 07:07:35;;;;;;;11.27;5.00;;;;;;;17.53;48.11;100335.19;3170571;28;20048;-66
2023/05/02 07:09:07;;;;;;;9.02;5.15;;;;;;;17.56;48.47;100328.88;3169847;28;20044;-67
2023/05/02 07:10:40;;;;;;;6.60;3.75;;;;;;;17.59;48.37;100318.16;3145118;28;20052;-66
2023/05/02 07:12:12;;;;;;;;;;;;;;;17.74;48.44;100331.13;3169690;28;20131;-68
2023/05/02 07:13:45;;;;;;;7.45;3.92;;;;;;;17.88;46.94;100340.78;3160795;28;20301;-67
2023/05/02 07:15:17;;;;;;;6.05;4.15;;;;;;;17.80;46.63;100306.22;3167221;28;20294;-67
2023/05/02 07:16:49;;;;;;;8.35;3.92;;;;;;;18.12;46.38;100330.38;3151542;28;20087;-68
2023/05/02 07:18:21;;;;;;;34.03;19.13;;;;;;;18.28;46.06;100339.88;3162324;28;20074;-68